createdAt,value
2018-10-03T00:00:46.052Z,23.80
2018-10-03T00:03:13.441Z,23.37
2018-10-03T00:05:40.965Z,21.33
2018-10-03T00:08:08.586Z,30.87
2018-10-03T00:10:36.068Z,22.57
2018-10-03T00:13:03.951Z,17.57
2018-10-03T00:15:31.439Z,21.83
2018-10-03T00:17:58.969Z,23.13
2018-10-03T00:20:26.439Z,22.50
2018-10-03T00:22:53.964Z,27.33
2018-10-03T00:25:21.448Z,30.27
2018-10-03T00:27:48.959Z,23.27
2018-10-03T00:30:16.446Z,26.87
2018-10-03T00:32:44.024Z,24.50
2018-10-03T00:35:11.402Z,23.70
2018-10-03T00:37:39.683Z,27.07
2018-10-03T00:40:07.155Z,21.10
2018-10-03T00:42:34.520Z,21.90
2018-10-03T00:45:01.923Z,19.60
2018-10-03T00:47:29.259Z,23.90
2018-10-03T00:49:56.655Z,25.77
2018-10-03T00:52:24.010Z,21.13
2018-10-03T00:54:51.530Z,23.73
2018-10-03T00:57:18.929Z,21.13
2018-10-03T00:59:46.315Z,23.23
2018-10-03T01:02:13.990Z,22.67
2018-10-03T01:04:41.464Z,25.03
2018-10-03T01:07:08.962Z,22.37
2018-10-03T01:09:36.403Z,14.10
2018-10-03T01:12:03.765Z,20.60
2018-10-03T01:14:31.137Z,26.97
2018-10-03T01:16:58.491Z,22.43
2018-10-03T01:19:25.857Z,18.97
2018-10-03T01:21:53.226Z,25.03
2018-10-03T01:24:20.607Z,21.10
2018-10-03T01:26:48.043Z,23.27
2018-10-03T01:29:16.165Z,22.03
2018-10-03T01:31:43.682Z,25.50
2018-10-03T01:34:11.150Z,23.43
2018-10-03T01:36:38.624Z,27.50
2018-10-03T01:39:14.432Z,22.03
2018-10-03T01:41:41.983Z,23.93
2018-10-03T01:44:09.431Z,25.23
2018-10-03T01:46:36.918Z,19.33
2018-10-03T01:49:04.237Z,29.43
2018-10-03T01:51:31.655Z,23.17
2018-10-03T01:53:58.999Z,22.10
2018-10-03T01:56:26.462Z,27.97
2018-10-03T01:58:53.814Z,26.40
2018-10-03T02:01:21.233Z,22.60
2018-10-03T02:03:48.655Z,19.57
2018-10-03T02:06:16.520Z,22.53
2018-10-03T02:08:43.987Z,28.33
2018-10-03T02:11:11.491Z,24.97
2018-10-03T02:13:39.050Z,26.43
2018-10-03T02:16:06.541Z,22.87
2018-10-03T02:18:33.982Z,26.00
2018-10-03T02:21:01.348Z,40.10
2018-10-03T02:23:28.783Z,29.43
2018-10-03T02:25:56.130Z,23.70
2018-10-03T02:28:23.438Z,28.33
2018-10-03T02:30:50.772Z,24.83
2018-10-03T02:33:18.175Z,21.97
2018-10-03T02:35:45.583Z,31.53
2018-10-03T02:38:13.083Z,23.47
2018-10-03T02:40:40.517Z,29.20
2018-10-03T02:43:07.933Z,25.63
2018-10-03T02:45:35.381Z,26.80
2018-10-03T02:48:02.812Z,25.13
2018-10-03T02:50:30.324Z,22.97
2018-10-03T02:52:57.750Z,26.80
2018-10-03T02:55:25.140Z,23.10
2018-10-03T02:57:52.479Z,23.20
2018-10-03T03:00:19.941Z,22.03
2018-10-03T03:02:47.321Z,28.00
2018-10-03T03:05:14.704Z,27.27
2018-10-03T03:07:42.144Z,26.80
2018-10-03T03:10:09.578Z,28.97
2018-10-03T03:12:36.997Z,26.50
2018-10-03T03:15:04.482Z,26.20
2018-10-03T03:17:31.939Z,25.00
2018-10-03T03:19:59.368Z,25.70
2018-10-03T03:22:26.713Z,25.60
2018-10-03T03:24:54.183Z,29.53
2018-10-03T03:27:21.598Z,31.23
2018-10-03T03:29:49.252Z,27.73
2018-10-03T03:32:16.634Z,27.70
2018-10-03T03:34:44.025Z,30.47
2018-10-03T03:37:11.497Z,27.47
2018-10-03T03:39:38.931Z,20.70
2018-10-03T03:42:06.827Z,23.97
2018-10-03T03:44:34.297Z,19.57
2018-10-03T03:47:01.888Z,26.07
2018-10-03T03:49:29.591Z,23.70
2018-10-03T03:51:57.165Z,27.07
2018-10-03T03:54:24.657Z,24.73
2018-10-03T03:56:52.188Z,23.20
2018-10-03T03:59:20.484Z,31.23
2018-10-03T04:01:48.351Z,26.07
2018-10-03T04:04:15.856Z,30.10
2018-10-03T04:06:50.754Z,21.47
2018-10-03T04:09:29.324Z,24.93
2018-10-03T04:12:07.730Z,28.40
2018-10-03T04:17:28.994Z,25.10
2018-10-03T04:20:16.097Z,25.77
2018-10-03T04:22:48.546Z,22.02
2018-10-03T04:25:16.182Z,29.17
2018-10-03T04:27:58.217Z,25.97
2018-10-03T04:30:31.504Z,23.77
2018-10-03T04:35:53.561Z,27.00
2018-10-03T04:38:21.032Z,22.60
2018-10-03T04:40:59.733Z,24.80
2018-10-03T04:43:53.822Z,26.73
2018-10-03T04:46:22.089Z,26.95
2018-10-03T04:48:59.892Z,24.04
2018-10-03T04:52:40.269Z,23.43
2018-10-03T04:58:40.479Z,31.47
2018-10-03T05:01:14.038Z,26.03
2018-10-03T06:01:52.486Z,16.10
2018-10-03T06:04:25.026Z,19.07
2018-10-03T06:06:55.562Z,24.03
2018-10-03T06:09:38.029Z,22.93
2018-10-03T06:12:10.901Z,18.67
2018-10-03T06:14:49.931Z,16.23
2018-10-03T06:17:26.962Z,13.93
2018-10-03T06:20:03.973Z,13.77
2018-10-03T06:22:42.249Z,20.87
2018-10-03T07:53:40.939Z,16.90
2018-10-03T07:56:31.448Z,11.83
2018-10-03T07:59:09.583Z,17.20
2018-10-03T08:02:27.252Z,16.97
2018-10-03T08:05:20.452Z,14.97
2018-10-03T08:16:02.829Z,13.46
2018-10-03T08:19:03.047Z,13.50
2018-10-03T08:21:43.853Z,12.67
2018-10-03T08:24:25.711Z,9.33
2018-10-03T08:27:05.084Z,9.83
2018-10-03T08:29:44.211Z,11.63
2018-10-03T12:07:35.690Z,7.53
2018-10-03T12:13:15.790Z,9.73
2018-10-03T12:15:52.222Z,9.90
2018-10-03T12:18:27.369Z,10.40
2018-10-03T18:15:15.871Z,9.03
2018-10-03T18:17:47.155Z,11.00
2018-10-03T18:26:12.020Z,7.17
2018-10-03T18:32:00.891Z,9.10
2018-10-03T18:34:29.297Z,13.90
2018-10-03T18:36:58.989Z,12.07
2018-10-03T18:39:27.433Z,14.30
2018-10-03T18:41:55.935Z,9.27
2018-10-03T18:44:35.444Z,10.00
2018-10-03T18:47:03.809Z,9.47
2018-10-03T18:52:10.918Z,11.23
2018-10-03T18:54:39.175Z,12.27
2018-10-03T18:59:52.130Z,8.60
2018-10-03T19:02:21.315Z,8.57
2018-10-03T19:04:50.368Z,11.57
2018-10-03T19:07:25.456Z,7.83
2018-10-03T19:10:04.842Z,10.67
2018-10-03T19:12:34.192Z,8.07
2018-10-03T19:15:03.436Z,12.13
2018-10-03T19:17:31.475Z,11.10
2018-10-03T19:19:59.622Z,9.87
2018-10-03T19:22:36.584Z,11.07
2018-10-03T19:25:05.246Z,13.20
2018-10-03T19:27:37.337Z,11.50
2018-10-03T19:30:07.544Z,14.40
2018-10-03T19:32:36.182Z,12.07
2018-10-03T19:35:10.165Z,13.40
2018-10-03T19:37:38.163Z,13.53
2018-10-03T19:40:06.179Z,10.97
2018-10-03T19:42:35.927Z,15.20
2018-10-03T19:45:06.435Z,16.33
2018-10-03T19:47:34.565Z,13.07
2018-10-03T19:50:03.675Z,10.23
2018-10-03T19:52:33.343Z,15.83
2018-10-03T19:55:01.126Z,13.33
2018-10-03T19:57:37.343Z,15.60
2018-10-03T20:00:05.208Z,14.20
2018-10-03T20:02:32.839Z,15.90
2018-10-03T20:05:01.500Z,13.33
2018-10-03T20:07:29.584Z,20.67
2018-10-03T20:09:58.671Z,10.53
2018-10-03T20:12:27.440Z,11.13
2018-10-03T20:14:56.879Z,19.37
2018-10-03T20:17:27.897Z,17.93
2018-10-03T20:19:56.501Z,16.47
2018-10-03T20:22:27.684Z,14.70
2018-10-03T20:24:55.898Z,15.30
2018-10-03T20:27:26.130Z,14.90
2018-10-03T20:29:54.261Z,17.23
2018-10-03T20:32:22.414Z,19.40
2018-10-03T20:34:53.533Z,16.17
2018-10-03T20:37:22.662Z,12.87
2018-10-03T20:39:51.769Z,13.77
2018-10-03T20:42:21.155Z,15.70
2018-10-03T20:44:50.205Z,13.83
2018-10-03T20:47:30.228Z,13.57
2018-10-03T20:50:06.451Z,16.10
2018-10-03T20:52:42.331Z,16.67
2018-10-03T20:55:10.724Z,13.73
2018-10-03T20:57:43.052Z,14.93
2018-10-03T21:00:11.910Z,13.60
2018-10-03T21:02:41.268Z,21.67
2018-10-03T21:05:11.684Z,13.80
2018-10-03T21:07:39.902Z,12.93
2018-10-03T21:10:09.683Z,12.30
2018-10-03T21:12:39.534Z,12.33
2018-10-03T21:15:08.223Z,15.33
2018-10-03T21:17:36.471Z,14.33
2018-10-03T21:20:05.945Z,14.33
2018-10-03T21:22:35.462Z,15.23
2018-10-03T21:25:04.165Z,12.77
2018-10-03T21:27:37.729Z,12.77
2018-10-03T21:30:06.832Z,15.83
2018-10-03T21:32:35.120Z,14.37
2018-10-03T21:35:04.038Z,12.88
2018-10-03T21:37:32.067Z,15.37
2018-10-03T21:40:04.147Z,15.23
2018-10-03T21:42:32.391Z,14.50
2018-10-03T21:45:00.219Z,17.57
2018-10-03T21:47:28.761Z,10.57
2018-10-03T21:49:56.676Z,16.03
2018-10-03T21:52:25.031Z,14.87
2018-10-03T21:54:53.405Z,13.50
2018-10-03T21:57:21.912Z,15.23
2018-10-03T21:59:49.707Z,18.40
2018-10-03T22:02:17.841Z,21.53
2018-10-03T22:04:47.615Z,18.27
2018-10-03T22:07:15.839Z,20.00
2018-10-03T22:09:44.303Z,16.17
2018-10-03T22:12:13.837Z,16.47
2018-10-03T22:14:42.627Z,18.90
2018-10-03T22:17:25.409Z,18.40
2018-10-03T22:19:54.478Z,15.63
2018-10-03T22:22:22.183Z,14.17
2018-10-03T22:24:50.491Z,20.63
2018-10-03T22:27:18.203Z,14.80
2018-10-03T22:29:46.712Z,18.80
2018-10-03T22:32:17.130Z,18.20
2018-10-03T22:34:48.325Z,14.23
2018-10-03T22:37:17.016Z,11.57
2018-10-03T22:39:46.719Z,14.70
2018-10-03T22:42:14.815Z,12.87
2018-10-03T22:44:44.974Z,14.77
2018-10-03T22:47:12.453Z,16.50
2018-10-03T22:49:41.141Z,15.93
2018-10-03T22:52:08.967Z,16.27
2018-10-03T22:54:36.665Z,17.53
2018-10-03T22:57:04.437Z,16.70
2018-10-03T22:59:32.285Z,13.63
2018-10-03T23:02:04.500Z,17.07
2018-10-03T23:04:32.592Z,14.07
2018-10-03T23:07:00.515Z,15.87
2018-10-03T23:09:28.519Z,19.37
2018-10-03T23:11:56.307Z,13.90
2018-10-03T23:14:23.813Z,15.83
2018-10-03T23:16:51.556Z,16.87
2018-10-03T23:19:19.312Z,16.33
2018-10-03T23:21:46.873Z,14.03
2018-10-03T23:24:14.456Z,15.90
2018-10-03T23:26:42.240Z,11.33
2018-10-03T23:29:10.270Z,14.43
2018-10-03T23:31:37.930Z,16.03
2018-10-03T23:34:05.858Z,14.23
2018-10-03T23:36:33.596Z,16.43
2018-10-03T23:39:01.366Z,10.30
2018-10-03T23:41:28.993Z,21.30
2018-10-03T23:43:57.044Z,15.87
2018-10-03T23:46:25.077Z,11.67
2018-10-03T23:48:53.003Z,14.67
2018-10-03T23:51:21.797Z,19.47
2018-10-03T23:53:49.546Z,19.03
2018-10-03T23:56:18.714Z,21.63
2018-10-03T23:58:46.481Z,19.27
